Historyczne dane pomiarowe

Dodano dane terminowe – wersja testowa.

Dane z okresu 1951-2019

Wersja bazy: 1.34 [2019-03-16, lista zmian], aktualizacja planowana na 2019-04-15

Dane meteo z obszaru Polski uzyskane na podstawie danych udostępnionych przez Instytut Meteorologii i Gospodarki Wodnej – Państwowy Instytut Badawczy.

 

Wybierz Datę:    

       

TemperaturaWilgotnośćWiatrCiśnienieOpadyŚniegCzas trwania zjawisk
 Stacja t tx tn tng RH VA  wxwx mslp ppp RRR   cm mm wxwxwxwxwxwxwx
1999-08-14 14.9 22.7 6.3 4.2 69.5- 2.0 1.7---- 4.9------------
1999-08-13 14.0 19.0 9.1 7.3 78.5- 6.7 1.7---- 2.0------------
1999-08-12 14.8 19.4 9.6 6.8 79.8- 6.3 2.3---- 0.0------------
1999-08-11 18.0 23.7 14.8 13.0 87.8- 7.3 2.3---- 0.1------------
1999-08-10 21.0 26.2 14.6 12.9 76.8- 5.3 2.0---- 0.0------------
1999-08-09 20.4 26.8 15.3 13.7 83.8- 2.3 2.3---- 1.4------------
1999-08-08 22.5 29.4 16.3 15.4 79.0- 2.0 1.3---- 2.1------------
1999-08-07 21.4 30.6 10.8 8.8 62.5- 3.7 1.7---- 3.9------------
1999-08-06 22.6 28.8 16.6 14.5 64.5- 2.3 1.7---- 0.0------------
1999-08-05 20.1 28.8 11.4 8.6 60.3- 3.7 1.0---- 0.0------------
1999-08-04 19.2 29.1 8.8 6.5 55.3- 2.0 0.7---- 0.0------------
1999-08-03 19.8 28.0 11.0 6.5 56.5- 1.7 1.7---- 0.0------------
1999-08-02 20.5 27.7 12.7 8.3 57.5- 0.0 2.3---- 0.0------------
1999-08-01 21.5 28.3 14.1 11.4 54.0- 0.3 3.3---- 0.0------------
1999-07-31 21.7 28.6 14.0 9.8 54.5- 2.0 2.7---- 0.0------------
1999-07-30 20.5 27.4 12.4 7.0 58.8- 0.7 2.0---- 0.0------------
1999-07-29 19.7 26.3 12.7 8.8 59.3- 0.0 2.7---- 0.0------------
1999-07-28 19.0 25.9 10.5 6.7 59.3- 1.0 4.0---- 0.0------------
1999-07-27 19.0 23.8 12.6 8.2 52.3- 0.0 2.3---- 0.0------------
1999-07-26 20.6 27.3 15.5 12.5 74.3- 4.0 2.3---- 0.0------------
1999-07-25 20.3 26.2 15.2 14.0 86.5- 4.7 2.0---- 0.2------------
1999-07-24 17.0 20.6 13.8 13.1 74.8- 6.7 2.3---- 0.8------------
1999-07-23 15.4 19.9 10.6 8.3 84.3- 4.3 2.0---- 1.0------------
1999-07-22 19.1 24.0 15.7 11.4 61.8- 3.7 3.0---- 0.0------------
1999-07-21 22.3 27.4 16.9 14.0 78.0- 1.3 2.7---- 0.0------------
1999-07-20 22.0 32.1 13.6 10.5 68.8- 3.0 2.3---- 3.8------------
1999-07-19 23.4 31.4 14.1 11.0 59.0- 0.0 2.0---- 0.0------------
1999-07-18 21.7 29.8 11.6 9.0 61.3- 1.3 1.3---- 0.0------------
1999-07-17 18.7 25.7 9.7 7.2 71.5- 2.7 1.7---- 0.0------------
1999-07-16 16.4 22.9 9.8 7.9 81.8- 1.7 1.0---- 0.1------------
1999-07-15 17.2 20.8 12.5 10.5 69.5- 4.0 2.0---- 4.0------------
1999-07-14 20.2 24.7 17.8 15.5 86.0- 8.0 2.7---- 0.8------------
1999-07-13 23.2 29.1 17.7 14.5 77.0- 4.3 2.3---- 0.0------------
1999-07-12 22.7 29.4 17.5 13.8 71.5- 3.7 3.3---- 0.0------------
1999-07-11 21.5 27.8 14.0 12.0 61.5- 4.0 3.3---- 0.0------------
1999-07-10 21.1 26.6 14.5 11.0 61.0- 0.0 5.0---- 0.0------------
1999-07-09 19.6 25.0 15.0 15.0 76.0- 3.0 4.3---- 0.0------------
1999-07-08 17.3 20.7 15.2 13.2 85.5- 7.3 1.7---- 5.0------------
1999-07-07 18.2 21.7 15.9 12.9 85.5- 5.7 2.3---- 0.0------------
1999-07-06 22.9 27.8 20.0 16.9 81.5- 4.3 2.7---- 2.1------------
1999-07-05 25.2 32.6 17.6 14.8 65.5- 2.0 3.7---- 0.0------------
1999-07-04 23.3 30.2 17.5 15.3 72.0- 1.0 1.3---- 0.2------------
1999-07-03 21.0 27.0 14.4 12.5 74.8- 3.0 2.3---- 0.0------------
1999-07-02 18.7 22.9 15.2 14.0 88.8- 5.7 1.0---- 1.9------------
1999-07-01 19.8 24.3 17.4 12.6 93.5- 7.0 1.7---- 23.8------------
1999-06-30 20.2 27.6 11.3 9.0 67.5- 2.3 1.7---- 2.7------------
1999-06-29 18.2 23.8 10.5 7.8 68.0- 0.3 1.3---- 0.0------------
1999-06-28 20.0 26.4 14.2 12.5 72.8- 3.7 2.7---- 0.0------------
1999-06-27 19.8 24.4 14.1 11.0 72.0- 7.3 2.7---- 0.0------------
1999-06-26 13.4 20.4 4.7 3.6 80.3- 2.7 2.0---- 0.0------------
1999-06-25 12.7 18.3 8.5 6.5 82.0- 5.0 0.7---- 3.3------------
1999-06-24 12.1 18.5 4.3 2.9 78.3- 5.0 0.7---- 1.1------------
1999-06-23 13.3 17.7 9.8 9.3 73.5- 5.3 3.3---- 0.0------------
1999-06-22 11.4 13.9 9.4 7.9 93.3- 8.0 2.3---- 15.5------------
1999-06-21 15.8 20.3 13.1 13.4 86.8- 7.0 1.0---- 4.0------------
1999-06-20 17.3 22.3 11.0 9.6 84.0- 4.3 1.7---- 0.0------------
1999-06-19 16.0 19.4 12.9 12.0 89.0- 8.0 1.3---- 0.0------------
1999-06-18 17.0 21.5 13.6 11.2 87.0- 7.7 2.3---- 8.3------------
1999-06-17 18.9 22.9 15.3 14.9 81.0- 5.0 1.3---- 0.0------------
1999-06-16 16.6 21.9 10.2 7.9 81.8- 6.3 1.7---- 0.0------------
1224.4 ms

 

Źródłem pochodzenia danych jest Instytut Meteorologii i Gospodarki Wodnej – Państwowy Instytut Badawczy. Dane Instytutu Meteorologii i Gospodarki Wodnej – Państwowego Instytutu Badawczego zostały przetworzone.

Dane źródłowe można odnaleźć na stronie https://dane.imgw.pl